createdAt,value
2016-05-24T00:00:39.045Z,50.86
2016-05-24T00:01:39.172Z,50.86
2016-05-24T00:02:38.910Z,51.05
2016-05-24T00:03:39.084Z,50.76
2016-05-24T00:04:38.931Z,50.76
2016-05-24T00:05:39.104Z,50.96
2016-05-24T00:06:39.092Z,50.96
2016-05-24T00:07:39.109Z,50.86
2016-05-24T00:08:39.128Z,51.05
2016-05-24T00:09:39.131Z,50.86
2016-05-24T00:10:39.134Z,50.67
2016-05-24T00:11:39.136Z,50.86
2016-05-24T00:12:39.155Z,50.76
2016-05-24T00:13:39.158Z,51.05
2016-05-24T00:14:39.300Z,51.05
2016-05-24T00:15:39.178Z,50.67
2016-05-24T00:16:39.213Z,50.86
2016-05-24T00:17:39.028Z,50.76
2016-05-24T00:18:39.218Z,50.96
2016-05-24T00:19:39.064Z,50.86
2016-05-24T00:20:39.224Z,50.96
2016-05-24T00:21:39.227Z,50.67
2016-05-24T00:22:39.260Z,50.96
2016-05-24T00:23:39.107Z,50.96
2016-05-24T00:24:39.265Z,50.96
2016-05-24T00:25:39.283Z,50.67
2016-05-24T00:26:39.129Z,50.96
2016-05-24T00:27:39.305Z,50.96
2016-05-24T00:28:39.307Z,50.96
2016-05-24T00:29:39.154Z,50.76
2016-05-24T00:30:39.328Z,50.86
2016-05-24T00:31:39.332Z,50.67
2016-05-24T00:32:39.349Z,50.67
2016-05-24T00:33:39.352Z,51.05
2016-05-24T00:34:39.370Z,50.67
2016-05-24T00:35:39.201Z,50.96
2016-05-24T00:36:39.219Z,50.96
2016-05-24T00:37:39.378Z,50.76
2016-05-24T00:38:39.397Z,50.96
2016-05-24T00:39:39.400Z,50.67
2016-05-24T00:40:39.418Z,50.67
2016-05-24T00:41:39.436Z,50.67
2016-05-24T00:42:39.267Z,50.96
2016-05-24T00:43:39.441Z,50.76
2016-05-24T00:44:39.303Z,50.86
2016-05-24T00:45:39.478Z,50.67
2016-05-24T00:46:39.465Z,50.67
2016-05-24T00:47:39.483Z,50.76
2016-05-24T00:48:39.486Z,50.86
2016-05-24T00:49:39.520Z,50.86
2016-05-24T00:50:39.508Z,50.96
2016-05-24T00:51:39.541Z,50.96
2016-05-24T00:52:39.388Z,50.96
2016-05-24T00:53:39.390Z,50.86
2016-05-24T00:54:39.549Z,50.96
2016-05-24T00:55:39.568Z,50.96
2016-05-24T00:56:39.555Z,50.96
2016-05-24T00:57:39.573Z,50.86
2016-05-24T00:58:39.576Z,50.86
2016-05-24T00:59:39.593Z,50.96
2016-05-24T01:00:39.607Z,50.67
2016-05-24T01:01:39.654Z,50.86
2016-05-24T01:02:39.685Z,50.76
2016-05-24T01:03:39.732Z,51.05
2016-05-24T01:04:39.762Z,50.67
2016-05-24T01:05:39.802Z,50.96
2016-05-24T01:06:39.659Z,50.96
2016-05-24T01:07:39.843Z,51.05
2016-05-24T01:08:39.857Z,50.76
2016-05-24T01:09:39.870Z,50.96
2016-05-24T01:10:39.895Z,50.96
2016-05-24T01:11:39.917Z,50.96
2016-05-24T01:12:39.924Z,50.67
2016-05-24T01:13:39.930Z,50.96
2016-05-24T01:14:39.937Z,50.86
2016-05-24T01:15:39.802Z,50.86
2016-05-24T01:16:39.805Z,50.86
2016-05-24T01:17:39.981Z,50.96
2016-05-24T01:18:39.985Z,51.05
2016-05-24T01:19:40.004Z,50.86
2016-05-24T01:20:40.008Z,50.76
2016-05-24T01:21:40.012Z,50.76
2016-05-24T01:22:40.029Z,50.96
2016-05-24T01:23:40.049Z,50.76
2016-05-24T01:24:39.895Z,50.67
2016-05-24T01:25:40.055Z,50.86
2016-05-24T01:26:39.916Z,50.86
2016-05-24T01:27:40.092Z,50.96
2016-05-24T01:28:40.094Z,50.76
2016-05-24T01:29:40.223Z,50.96
2016-05-24T01:30:40.116Z,50.76
2016-05-24T01:31:39.979Z,50.76
2016-05-24T01:32:40.123Z,50.96
2016-05-24T01:33:40.141Z,50.86
2016-05-24T01:34:40.143Z,50.96
2016-05-24T01:35:40.005Z,51.05
2016-05-24T01:36:40.163Z,50.96
2016-05-24T01:37:40.167Z,50.96
2016-05-24T01:38:40.170Z,50.96
2016-05-24T01:39:40.188Z,50.96
2016-05-24T01:40:40.206Z,50.76
2016-05-24T01:41:40.224Z,50.96
2016-05-24T01:42:40.227Z,50.86
2016-05-24T01:43:40.229Z,50.96
2016-05-24T01:44:40.311Z,50.86
2016-05-24T01:45:40.251Z,50.86
2016-05-24T01:46:40.097Z,50.96
2016-05-24T01:47:40.271Z,50.96
2016-05-24T01:48:40.274Z,50.96
2016-05-24T01:49:40.309Z,50.86
2016-05-24T01:50:40.296Z,51.05
2016-05-24T01:51:40.314Z,50.96
2016-05-24T01:52:40.301Z,50.96
2016-05-24T01:53:40.334Z,50.96
2016-05-24T01:54:40.337Z,50.86
2016-05-24T01:55:40.340Z,50.76
2016-05-24T01:56:40.343Z,50.86
2016-05-24T01:57:40.361Z,50.96
2016-05-24T01:58:40.364Z,50.86
2016-05-24T01:59:40.398Z,50.86
2016-05-24T02:00:40.401Z,50.86
2016-05-24T02:01:40.387Z,50.86
2016-05-24T02:02:40.422Z,50.96
2016-05-24T02:03:40.408Z,50.96
2016-05-24T02:04:40.427Z,50.96
2016-05-24T02:05:40.429Z,50.96
2016-05-24T02:06:40.448Z,50.86
2016-05-24T02:07:40.295Z,50.76
2016-05-24T02:08:40.469Z,50.76
2016-05-24T02:09:40.471Z,50.76
2016-05-24T02:10:40.490Z,50.76
2016-05-24T02:11:40.336Z,50.76
2016-05-24T02:12:40.355Z,50.76
2016-05-24T02:13:40.530Z,50.76
2016-05-24T02:14:40.735Z,50.96
2016-05-24T02:15:40.535Z,50.76
2016-05-24T02:16:40.537Z,50.86
2016-05-24T02:17:40.555Z,50.86
2016-05-24T02:18:40.558Z,50.86
2016-05-24T02:19:40.560Z,50.86
2016-05-24T02:20:40.580Z,50.76
2016-05-24T02:21:40.582Z,50.76
2016-05-24T02:22:40.600Z,50.76
2016-05-24T02:23:40.446Z,50.76
2016-05-24T02:24:40.637Z,50.86
2016-05-24T02:25:40.452Z,50.86
2016-05-24T02:26:40.626Z,50.76
2016-05-24T02:27:40.473Z,50.96
2016-05-24T02:28:40.648Z,50.76
2016-05-24T02:29:40.885Z,50.86
2016-05-24T02:30:40.669Z,50.76
2016-05-24T02:31:40.672Z,50.76
2016-05-24T02:32:40.689Z,50.76
2016-05-24T02:33:40.692Z,50.76
2016-05-24T02:34:40.710Z,50.86
2016-05-24T02:35:40.729Z,50.76
2016-05-24T02:36:40.731Z,50.86
2016-05-24T02:37:40.734Z,50.76
2016-05-24T02:38:40.752Z,50.86
2016-05-24T02:39:40.755Z,50.96
2016-05-24T02:40:40.774Z,50.86
2016-05-24T02:41:40.761Z,50.76
2016-05-24T02:42:40.780Z,50.76
2016-05-24T02:43:40.782Z,50.67
2016-05-24T02:44:40.643Z,50.76
2016-05-24T02:45:40.865Z,50.96
2016-05-24T02:46:40.821Z,50.76
2016-05-24T02:47:40.902Z,50.96
2016-05-24T02:48:40.843Z,50.76
2016-05-24T02:49:40.688Z,50.86
2016-05-24T02:50:40.848Z,50.86
2016-05-24T02:51:40.865Z,50.86
2016-05-24T02:52:40.899Z,50.76
2016-05-24T02:53:40.887Z,50.86
2016-05-24T02:54:40.890Z,50.86
2016-05-24T02:55:40.907Z,50.96
2016-05-24T02:56:40.910Z,50.76
2016-05-24T02:57:40.773Z,50.86
2016-05-24T02:58:40.776Z,50.76
2016-05-24T02:59:41.340Z,50.86
2016-05-24T03:00:40.953Z,50.76
2016-05-24T03:01:40.955Z,50.86
2016-05-24T03:02:40.973Z,50.96
2016-05-24T03:03:40.836Z,50.86
2016-05-24T03:04:40.995Z,50.86
2016-05-24T03:05:40.981Z,50.76
2016-05-24T03:06:41.000Z,50.76
2016-05-24T03:07:41.019Z,50.76
2016-05-24T03:08:41.021Z,50.76
2016-05-24T03:09:41.024Z,50.76
2016-05-24T03:10:41.058Z,50.76
2016-05-24T03:11:41.044Z,50.47
2016-05-24T03:12:41.063Z,50.76
2016-05-24T03:13:41.080Z,50.67
2016-05-24T03:14:41.083Z,50.76
2016-05-24T03:15:41.102Z,50.76
2016-05-24T03:16:41.089Z,50.47
2016-05-24T03:17:41.108Z,50.47
2016-05-24T03:18:41.126Z,50.86
2016-05-24T03:19:41.128Z,50.57
2016-05-24T03:20:40.990Z,51.05
2016-05-24T03:21:40.993Z,50.74
2016-05-24T03:22:40.996Z,50.76
2016-05-24T03:23:41.171Z,50.57
2016-05-24T03:24:41.189Z,50.74
2016-05-24T03:25:41.192Z,50.76
2016-05-24T03:26:41.195Z,51.05
2016-05-24T03:27:41.197Z,51.03
2016-05-24T03:28:41.215Z,50.96
2016-05-24T03:29:41.749Z,50.86
2016-05-24T03:30:41.220Z,51.05
2016-05-24T03:31:41.239Z,51.05
2016-05-24T03:32:41.242Z,51.05
2016-05-24T03:33:41.259Z,50.96
2016-05-24T03:34:41.262Z,50.57
2016-05-24T03:35:41.265Z,51.05
2016-05-24T03:36:41.283Z,50.67
2016-05-24T03:37:41.318Z,50.67
2016-05-24T03:38:41.320Z,50.86
2016-05-24T03:39:41.308Z,50.67
2016-05-24T03:40:41.325Z,50.74
2016-05-24T03:41:41.328Z,51.05
2016-05-24T03:42:41.346Z,50.64
2016-05-24T03:43:41.334Z,50.96
2016-05-24T03:44:41.524Z,51.05
2016-05-24T03:45:41.371Z,51.05
2016-05-24T03:46:41.388Z,50.64
2016-05-24T03:47:41.391Z,50.96
2016-05-24T03:48:41.409Z,50.57
2016-05-24T03:49:41.397Z,51.03
2016-05-24T03:50:41.259Z,51.05
2016-05-24T03:51:41.433Z,51.05
2016-05-24T03:52:41.435Z,50.93
2016-05-24T03:53:41.439Z,50.76
2016-05-24T03:54:41.457Z,50.67
2016-05-24T03:55:41.444Z,50.64
2016-05-24T03:56:41.306Z,51.03
2016-05-24T03:57:41.465Z,51.03
2016-05-24T03:58:41.499Z,50.67
2016-05-24T03:59:41.501Z,50.96
2016-05-24T04:00:41.504Z,50.96
2016-05-24T04:01:41.367Z,51.05
2016-05-24T04:02:41.541Z,50.76
2016-05-24T04:03:41.528Z,50.67
2016-05-24T04:04:41.390Z,50.93
2016-05-24T04:05:41.550Z,50.67
2016-05-24T04:06:41.583Z,50.96
2016-05-24T04:07:41.570Z,50.96
2016-05-24T04:08:41.588Z,51.03
2016-05-24T04:09:41.606Z,51.05
2016-05-24T04:10:41.609Z,51.05
2016-05-24T04:11:41.628Z,51.05
2016-05-24T04:12:41.458Z,50.93
2016-05-24T04:13:41.633Z,51.05
2016-05-24T04:14:41.635Z,51.05
2016-05-24T04:15:41.654Z,51.03
2016-05-24T04:16:41.501Z,50.93
2016-05-24T04:17:41.660Z,51.03
2016-05-24T04:18:41.678Z,50.93
2016-05-24T04:19:41.680Z,50.64
2016-05-24T04:20:41.698Z,50.93
2016-05-24T04:21:41.702Z,51.05
2016-05-24T04:22:41.735Z,51.05
2016-05-24T04:23:41.723Z,50.54
2016-05-24T04:24:41.772Z,50.64
2016-05-24T04:25:41.743Z,51.03
2016-05-24T04:26:41.746Z,50.57
2016-05-24T04:27:41.779Z,50.96
2016-05-24T04:28:41.768Z,50.96
2016-05-24T04:29:42.301Z,50.45
2016-05-24T04:30:41.773Z,50.54
2016-05-24T04:31:41.806Z,50.67
2016-05-24T04:32:41.793Z,50.76
2016-05-24T04:33:41.656Z,50.76
2016-05-24T04:34:41.815Z,50.96
2016-05-24T04:35:41.817Z,50.67
2016-05-24T04:36:41.836Z,51.05
2016-05-24T04:37:41.838Z,50.74
2016-05-24T04:38:41.716Z,50.76
2016-05-24T04:39:41.859Z,50.86
2016-05-24T04:40:41.722Z,50.74
2016-05-24T04:41:41.880Z,50.64
2016-05-24T04:42:41.883Z,50.96
2016-05-24T04:43:41.901Z,50.64
2016-05-24T04:44:41.920Z,50.64
2016-05-24T04:45:41.985Z,50.64
2016-05-24T04:46:41.941Z,50.76
2016-05-24T04:47:41.943Z,50.76
2016-05-24T04:48:41.805Z,50.67
2016-05-24T04:49:41.948Z,50.93
2016-05-24T04:50:41.967Z,50.64
2016-05-24T04:51:41.970Z,51.05
2016-05-24T04:52:41.988Z,50.64
2016-05-24T04:53:41.834Z,50.76
2016-05-24T04:54:42.024Z,50.93
2016-05-24T04:55:42.012Z,51.03
2016-05-24T04:56:42.030Z,51.05
2016-05-24T04:57:42.033Z,51.05
2016-05-24T04:58:42.035Z,50.67
2016-05-24T04:59:42.069Z,50.67
2016-05-24T05:00:41.901Z,50.64
2016-05-24T05:01:42.075Z,50.93
2016-05-24T05:02:42.078Z,50.67
2016-05-24T05:03:42.081Z,50.93
2016-05-24T05:04:42.098Z,50.67
2016-05-24T05:05:42.117Z,51.05
2016-05-24T05:06:41.963Z,50.64
2016-05-24T05:07:42.137Z,50.67
2016-05-24T05:08:42.140Z,51.05
2016-05-24T05:09:42.159Z,50.76
2016-05-24T05:10:42.145Z,50.96
2016-05-24T05:11:42.164Z,51.05
2016-05-24T05:12:42.183Z,51.12
2016-05-24T05:13:42.186Z,50.93
2016-05-24T05:14:42.188Z,50.74
2016-05-24T05:15:42.066Z,50.96
2016-05-24T05:16:42.193Z,50.67
2016-05-24T05:17:42.211Z,51.05
2016-05-24T05:18:42.230Z,50.93
2016-05-24T05:19:42.249Z,51.03
2016-05-24T05:20:42.235Z,50.86
2016-05-24T05:21:42.269Z,50.76
2016-05-24T05:22:42.100Z,51.05
2016-05-24T05:23:42.291Z,50.67
2016-05-24T05:24:42.276Z,50.76
2016-05-24T05:25:42.296Z,50.67
2016-05-24T05:26:42.143Z,50.64
2016-05-24T05:27:42.301Z,50.93
2016-05-24T05:28:42.318Z,50.74
2016-05-24T05:29:42.337Z,50.93
2016-05-24T05:30:42.434Z,50.67
2016-05-24T05:31:42.359Z,50.84
2016-05-24T05:32:42.376Z,50.84
2016-05-24T05:33:42.365Z,50.74
2016-05-24T05:34:42.382Z,50.64
2016-05-24T05:35:42.384Z,51.05
2016-05-24T05:36:42.388Z,50.64
2016-05-24T05:37:42.406Z,50.76
2016-05-24T05:38:42.408Z,50.67
2016-05-24T05:39:42.427Z,50.64
2016-05-24T05:40:42.430Z,51.03
2016-05-24T05:41:42.448Z,51.15
2016-05-24T05:42:42.450Z,51.05
2016-05-24T05:43:42.297Z,51.05
2016-05-24T05:44:42.472Z,51.03
2016-05-24T05:45:42.489Z,51.05
2016-05-24T05:46:42.492Z,51.05
2016-05-24T05:47:42.494Z,51.05
2016-05-24T05:48:42.513Z,50.64
2016-05-24T05:49:42.501Z,51.03
2016-05-24T05:50:42.535Z,50.57
2016-05-24T05:51:42.522Z,50.54
2016-05-24T05:52:42.555Z,50.74
2016-05-24T05:53:42.543Z,50.86
2016-05-24T05:54:42.576Z,50.54
2016-05-24T05:55:42.563Z,50.76
2016-05-24T05:56:42.582Z,50.76
2016-05-24T05:57:42.585Z,50.84
2016-05-24T05:58:42.618Z,50.57
2016-05-24T05:59:42.606Z,50.86
2016-05-24T06:00:42.609Z,50.64
2016-05-24T06:01:42.611Z,50.76
2016-05-24T06:02:42.645Z,50.86
2016-05-24T06:03:42.631Z,50.76
2016-05-24T06:04:42.651Z,50.67
2016-05-24T06:05:42.653Z,50.86
2016-05-24T06:06:42.671Z,50.86
2016-05-24T06:07:42.673Z,50.84
2016-05-24T06:08:42.692Z,50.74
2016-05-24T06:09:42.710Z,50.74
2016-05-24T06:10:43.010Z,50.96
2016-05-24T06:11:42.701Z,50.76
2016-05-24T06:12:42.578Z,50.76
2016-05-24T06:13:42.736Z,50.84
2016-05-24T06:14:42.740Z,50.86
2016-05-24T06:15:45.930Z,50.86
2016-05-24T06:16:42.760Z,50.86
2016-05-24T06:17:42.622Z,50.84
2016-05-24T06:18:42.625Z,50.86
2016-05-24T06:19:42.785Z,50.76
2016-05-24T06:20:42.803Z,50.93
2016-05-24T06:21:42.805Z,50.86
2016-05-24T06:22:42.824Z,50.84
2016-05-24T06:23:42.826Z,50.84
2016-05-24T06:24:42.844Z,50.76
2016-05-24T06:25:42.847Z,50.86
2016-05-24T06:26:42.710Z,50.84
2016-05-24T06:27:42.868Z,50.86
2016-05-24T06:28:42.871Z,50.86
2016-05-24T06:29:42.905Z,50.84
2016-05-24T06:30:42.892Z,50.74
2016-05-24T06:31:42.895Z,50.84
2016-05-24T06:32:42.913Z,50.74
2016-05-24T06:33:42.916Z,50.74
2016-05-24T06:34:42.934Z,50.67
2016-05-24T06:35:42.937Z,50.86
2016-05-24T06:36:42.784Z,50.86
2016-05-24T06:37:42.942Z,50.86
2016-05-24T06:38:42.976Z,50.76
2016-05-24T06:39:42.964Z,50.84
2016-05-24T06:40:42.998Z,50.86
2016-05-24T06:41:42.984Z,50.84
2016-05-24T06:42:43.002Z,50.86
2016-05-24T06:43:43.005Z,50.74
2016-05-24T06:44:43.039Z,50.96
2016-05-24T06:45:42.870Z,50.86
2016-05-24T06:46:43.045Z,50.84
2016-05-24T06:47:43.047Z,50.84
2016-05-24T06:48:43.066Z,50.74
2016-05-24T06:49:43.069Z,50.76
2016-05-24T06:50:43.072Z,50.86
2016-05-24T06:51:43.089Z,50.93
2016-05-24T06:52:43.108Z,50.86
2016-05-24T06:53:43.110Z,50.84
2016-05-24T06:54:43.129Z,50.86
2016-05-24T06:55:43.132Z,50.84
2016-05-24T06:56:43.149Z,50.84
2016-05-24T06:57:43.137Z,50.74
2016-05-24T06:58:43.171Z,50.74
2016-05-24T06:59:43.143Z,50.76
2016-05-24T07:00:43.161Z,50.76
2016-05-24T07:01:43.179Z,50.84
2016-05-24T07:02:43.197Z,50.86
2016-05-24T07:03:43.199Z,50.74
2016-05-24T07:04:43.202Z,50.84
2016-05-24T07:05:43.221Z,51.44
2016-05-24T07:06:43.223Z,53.8
2016-05-24T07:07:43.242Z,56.12
2016-05-24T07:08:43.229Z,56.6
2016-05-24T07:09:43.248Z,56.12
2016-05-24T07:10:43.250Z,56.15
2016-05-24T07:11:43.268Z,55
2016-05-24T07:12:43.287Z,54.74
2016-05-24T07:13:43.134Z,54.47
2016-05-24T07:14:43.136Z,53.8
2016-05-24T07:15:43.310Z,54.88
2016-05-24T07:16:43.313Z,53.92
2016-05-24T07:17:43.316Z,53.44
2016-05-24T07:18:43.318Z,53.83
2016-05-24T07:19:43.352Z,52.95
2016-05-24T07:20:43.339Z,53.25
2016-05-24T07:21:43.405Z,53.15
2016-05-24T07:22:43.344Z,53.15
2016-05-24T07:23:43.378Z,52.76
2016-05-24T07:24:43.366Z,52.86
2016-05-24T07:25:43.384Z,52.95
2016-05-24T07:26:43.386Z,53.05
2016-05-24T07:27:43.389Z,53.17
2016-05-24T07:28:43.408Z,52.86
2016-05-24T07:29:43.426Z,52.59
2016-05-24T07:30:43.538Z,52.69
2016-05-24T07:31:43.446Z,52.4
2016-05-24T07:32:43.434Z,52.11
2016-05-24T07:33:43.452Z,52.01
2016-05-24T07:34:43.471Z,51.92
2016-05-24T07:35:43.551Z,52.4
2016-05-24T07:36:43.570Z,52.59
2016-05-24T07:37:43.495Z,52.79
2016-05-24T07:38:43.513Z,52.59
2016-05-24T07:39:43.500Z,52.5
2016-05-24T07:40:43.518Z,52.4
2016-05-24T07:41:43.520Z,52.5
2016-05-24T07:42:43.539Z,52.5
2016-05-24T07:43:43.557Z,52.31
2016-05-24T07:44:43.544Z,52.89
2016-05-24T07:45:43.423Z,52.69
2016-05-24T07:46:43.565Z,52.69
2016-05-24T07:47:43.599Z,52.4
2016-05-24T07:48:43.587Z,52.11
2016-05-24T07:49:43.620Z,52.33
2016-05-24T07:50:43.686Z,52.33
2016-05-24T07:51:43.611Z,52.72
2016-05-24T07:52:43.628Z,52.53
2016-05-24T07:53:43.725Z,52.33
2016-05-24T07:54:43.649Z,52.33
2016-05-24T07:55:43.511Z,52.81
2016-05-24T07:56:43.671Z,52.72
2016-05-24T07:57:43.689Z,52.91
2016-05-24T07:58:43.676Z,52.91
2016-05-24T07:59:43.694Z,53.01
2016-05-24T08:00:43.696Z,52.69
2016-05-24T08:01:43.715Z,52.53
2016-05-24T08:02:43.780Z,52.62
2016-05-24T08:03:43.721Z,52.53
2016-05-24T08:04:43.739Z,53.2
2016-05-24T08:05:43.757Z,53.2
2016-05-24T08:06:43.744Z,52.81
2016-05-24T08:07:43.762Z,52.43
2016-05-24T08:08:43.781Z,52.33
2016-05-24T08:09:43.784Z,52.33
2016-05-24T08:10:43.787Z,52.43
2016-05-24T08:11:43.648Z,52.72
2016-05-24T08:12:43.807Z,53.2
2016-05-24T08:13:43.826Z,52.91
2016-05-24T08:14:43.672Z,52.23
2016-05-24T08:15:43.847Z,52.23
2016-05-24T08:16:43.850Z,52.23
2016-05-24T08:17:43.868Z,52.33
2016-05-24T08:18:43.870Z,52.23
2016-05-24T08:19:43.888Z,52.14
2016-05-24T08:20:43.891Z,52.33
2016-05-24T08:21:43.895Z,52.23
2016-05-24T08:22:43.912Z,52.43
2016-05-24T08:23:43.915Z,52.72
2016-05-24T08:24:43.981Z,52.72
2016-05-24T08:25:43.936Z,52.53
2016-05-24T08:26:43.938Z,52.43
2016-05-24T08:27:43.941Z,52.62
2016-05-24T08:28:43.960Z,52.62
2016-05-24T08:29:43.978Z,52.43
2016-05-24T08:30:44.121Z,52.43
2016-05-24T08:31:43.983Z,52.43
2016-05-24T08:32:43.846Z,52.43
2016-05-24T08:33:44.020Z,52.72
2016-05-24T08:34:44.023Z,53.3
2016-05-24T08:35:44.088Z,52.62
2016-05-24T08:36:44.044Z,52.53
2016-05-24T08:37:44.046Z,52.72
2016-05-24T08:38:43.971Z,52.72
2016-05-24T08:39:44.082Z,52.81
2016-05-24T08:40:44.070Z,52.43
2016-05-24T08:41:44.088Z,52.72
2016-05-24T08:42:44.091Z,52.62
2016-05-24T08:43:44.110Z,52.55
2016-05-24T08:44:44.112Z,52.62
2016-05-24T08:45:44.287Z,52.55
2016-05-24T08:46:44.133Z,52.72
2016-05-24T08:47:44.136Z,52.36
2016-05-24T08:48:44.247Z,52.36
2016-05-24T08:49:44.141Z,52.65
2016-05-24T08:50:44.176Z,52.62
2016-05-24T08:51:44.178Z,52.65
2016-05-24T08:52:44.196Z,52.84
2016-05-24T08:53:44.214Z,52.84
2016-05-24T08:54:44.217Z,52.45
2016-05-24T08:55:44.219Z,52.53
2016-05-24T08:56:44.223Z,52.91
2016-05-24T08:57:44.241Z,52.75
2016-05-24T08:58:44.353Z,52.62
2016-05-24T08:59:44.277Z,53.2
2016-05-24T09:00:47.171Z,53.23
2016-05-24T09:01:44.283Z,52.84
2016-05-24T09:02:44.285Z,52.65
2016-05-24T09:03:44.305Z,53.33
2016-05-24T09:04:44.322Z,52.91
2016-05-24T09:05:44.371Z,53.2
2016-05-24T09:06:44.343Z,52.72
2016-05-24T09:07:44.330Z,52.75
2016-05-24T09:08:44.349Z,52.81
2016-05-24T09:09:44.351Z,52.75
2016-05-24T09:10:44.385Z,52.94
2016-05-24T09:11:44.373Z,52.75
2016-05-24T09:12:44.454Z,52.62
2016-05-24T09:13:44.393Z,52.81
2016-05-24T09:14:44.396Z,52.72
2016-05-24T09:15:49.165Z,52.65
2016-05-24T09:16:44.417Z,52.72
2016-05-24T09:17:44.420Z,52.94
2016-05-24T09:18:44.437Z,52.65
2016-05-24T09:19:44.456Z,52.94
2016-05-24T09:20:44.459Z,52.65
2016-05-24T09:21:44.478Z,52.94
2016-05-24T09:22:44.527Z,52.75
2016-05-24T09:23:44.498Z,52.84
2016-05-24T09:24:44.517Z,53.33
2016-05-24T09:25:46.254Z,52.94
2016-05-24T09:26:44.506Z,53.13
2016-05-24T09:27:44.540Z,52.75
2016-05-24T09:28:44.528Z,53.13
2016-05-24T09:29:44.546Z,53.03
2016-05-24T09:30:45.252Z,53.03
2016-05-24T09:31:44.411Z,52.75
2016-05-24T09:32:44.647Z,53.23
2016-05-24T09:33:44.588Z,52.84
2016-05-24T09:34:44.528Z,52.84
2016-05-24T09:35:45.343Z,53.23
2016-05-24T09:36:44.720Z,52.94
2016-05-24T09:37:44.661Z,52.65
2016-05-24T09:38:44.632Z,53.23
2016-05-24T09:39:44.666Z,52.65
2016-05-24T09:40:44.654Z,53.23
2016-05-24T09:41:44.656Z,52.94
2016-05-24T09:42:44.674Z,52.84
2016-05-24T09:43:44.662Z,52.65
2016-05-24T09:44:44.695Z,52.84
2016-05-24T09:45:46.245Z,53.03
2016-05-24T09:46:44.716Z,52.75
2016-05-24T09:47:44.595Z,52.65
2016-05-24T09:48:44.738Z,52.75
2016-05-24T09:49:44.739Z,52.65
2016-05-24T09:50:44.759Z,52.65
2016-05-24T09:51:44.761Z,52.65
2016-05-24T09:52:44.764Z,52.55
2016-05-24T09:53:44.876Z,52.65
2016-05-24T09:54:44.784Z,52.55
2016-05-24T09:55:44.631Z,52.75
2016-05-24T09:56:44.837Z,52.26
2016-05-24T09:57:44.824Z,52.36
2016-05-24T09:58:44.670Z,52.07
2016-05-24T09:59:44.830Z,52.07
2016-05-24T10:00:44.848Z,52.07
2016-05-24T10:01:44.866Z,52.26
2016-05-24T10:02:44.869Z,52.17
2016-05-24T10:03:44.872Z,52.17
2016-05-24T10:04:44.905Z,52.17
2016-05-24T10:05:44.892Z,52.07
2016-05-24T10:06:44.768Z,52.17
2016-05-24T10:07:44.887Z,52.26
2016-05-24T10:08:45.004Z,51.97
2016-05-24T10:09:45.014Z,51.78
2016-05-24T10:10:45.054Z,52.07
2016-05-24T10:11:45.069Z,52.07
2016-05-24T10:12:45.096Z,52.17
2016-05-24T10:13:45.107Z,52.07
2016-05-24T10:14:45.133Z,51.97
2016-05-24T10:15:45.348Z,52.07
2016-05-24T10:16:45.152Z,52.07
2016-05-24T10:17:45.158Z,52.26
2016-05-24T10:18:45.178Z,52.17
2016-05-24T10:19:45.183Z,52.26
2016-05-24T10:20:45.189Z,52.26
2016-05-24T10:21:45.209Z,51.87
2016-05-24T10:22:45.244Z,51.97
2016-05-24T10:23:45.233Z,52.36
2016-05-24T10:24:45.095Z,51.9
2016-05-24T10:25:45.271Z,51.81
2016-05-24T10:26:45.290Z,51.81
2016-05-24T10:27:45.325Z,51.71
2016-05-24T10:28:45.296Z,52.09
2016-05-24T10:29:45.299Z,52.09
2016-05-24T10:30:45.881Z,52.19
2016-05-24T10:31:45.868Z,52.09
2016-05-24T10:32:45.402Z,52
2016-05-24T10:33:45.342Z,52
2016-05-24T10:34:45.360Z,52.29
2016-05-24T10:35:45.222Z,52.65
2016-05-24T10:36:46.022Z,52.84
2016-05-24T10:37:45.384Z,52.65
2016-05-24T10:38:45.387Z,52.55
2016-05-24T10:39:45.420Z,52.26
2016-05-24T10:40:45.408Z,52.48
2016-05-24T10:41:45.426Z,52.29
2016-05-24T10:42:45.444Z,52.55
2016-05-24T10:43:45.275Z,52.48
2016-05-24T10:44:45.465Z,52.39
2016-05-24T10:45:45.796Z,52.29
2016-05-24T10:46:46.517Z,52.55
2016-05-24T10:47:45.317Z,52.45
2016-05-24T10:48:45.336Z,52.58
2016-05-24T10:49:45.494Z,52.48
2016-05-24T10:50:45.513Z,52.58
2016-05-24T10:51:45.578Z,52.77
2016-05-24T10:52:45.533Z,52.87
2016-05-24T10:53:45.536Z,53.06
2016-05-24T10:54:45.601Z,52.97
2016-05-24T10:55:45.573Z,52.77
2016-05-24T10:56:45.560Z,52.58
2016-05-24T10:57:45.594Z,53.06
2016-05-24T10:58:45.581Z,52.77
2016-05-24T10:59:45.615Z,52.77
2016-05-24T11:00:46.086Z,52.97
2016-05-24T11:01:46.027Z,52.67
2016-05-24T11:02:45.701Z,52.97
2016-05-24T11:03:45.720Z,53.16
2016-05-24T11:04:45.644Z,52.97
2016-05-24T11:05:45.678Z,52.77
2016-05-24T11:06:46.228Z,53.55
2016-05-24T11:07:45.668Z,53.25
2016-05-24T11:08:45.545Z,53.25
2016-05-24T11:09:45.532Z,54.13
2016-05-24T11:10:45.707Z,54.03
2016-05-24T11:11:45.725Z,53.93
2016-05-24T11:12:45.572Z,53.83
2016-05-24T11:13:45.746Z,53.64
2016-05-24T11:14:45.750Z,53.64
2016-05-24T11:15:45.861Z,53.81
2016-05-24T11:16:46.363Z,53.93
2016-05-24T11:17:45.633Z,54.32
2016-05-24T11:18:45.775Z,53.61
2016-05-24T11:19:45.794Z,54.39
2016-05-24T11:20:45.812Z,54
2016-05-24T11:21:48.080Z,53.83
2016-05-24T11:22:45.817Z,54.41
2016-05-24T11:23:45.836Z,53.91
2016-05-24T11:24:45.822Z,53.81
2016-05-24T11:25:45.919Z,53.71
2016-05-24T11:26:45.860Z,53.71
2016-05-24T11:27:45.862Z,53.81
2016-05-24T11:28:45.880Z,53.74
2016-05-24T11:29:45.899Z,54.13
2016-05-24T11:30:46.168Z,53.71
2016-05-24T11:31:45.920Z,53.91
2016-05-24T11:32:45.782Z,53.83
2016-05-24T11:33:45.941Z,53.71
2016-05-24T11:34:45.929Z,53.91
2016-05-24T11:35:45.977Z,53.91
2016-05-24T11:36:45.948Z,53.81
2016-05-24T11:37:45.951Z,54.39
2016-05-24T11:38:45.970Z,53.91
2016-05-24T11:39:45.988Z,53.81
2016-05-24T11:40:45.990Z,53.71
2016-05-24T11:41:46.009Z,54.19
2016-05-24T11:42:46.043Z,53.61
2016-05-24T11:43:45.889Z,53.71
2016-05-24T11:44:46.033Z,53.81
2016-05-24T11:45:46.003Z,53.81
2016-05-24T11:46:46.053Z,53.23
2016-05-24T11:47:46.072Z,53.55
2016-05-24T11:48:46.075Z,53.16
2016-05-24T11:49:45.922Z,53.42
2016-05-24T11:50:46.097Z,53.16
2016-05-24T11:51:46.129Z,53.25
2016-05-24T11:52:46.352Z,53.06
2016-05-24T11:53:45.964Z,52.77
2016-05-24T11:54:46.153Z,53.16
2016-05-24T11:55:46.219Z,52.87
2016-05-24T11:56:46.174Z,53.06
2016-05-24T11:57:46.177Z,53.06
2016-05-24T11:58:46.180Z,52.77
2016-05-24T11:59:46.182Z,52.77
2016-05-24T12:00:46.044Z,52.58
2016-05-24T12:01:46.204Z,52.87
2016-05-24T12:02:46.221Z,52.97
2016-05-24T12:03:46.224Z,52.77
2016-05-24T12:04:46.227Z,53.35
2016-05-24T12:05:46.074Z,53.16
2016-05-24T12:06:46.232Z,53.16
2016-05-24T12:07:46.267Z,52.67
2016-05-24T12:08:46.270Z,53.16
2016-05-24T12:09:46.241Z,53.16
2016-05-24T12:10:46.290Z,52.77
2016-05-24T12:11:46.309Z,53.25
2016-05-24T12:12:46.170Z,52.67
2016-05-24T12:13:46.298Z,53.06
2016-05-24T12:14:46.332Z,52.29
2016-05-24T12:15:46.397Z,52.97
2016-05-24T12:16:46.353Z,52.77
2016-05-24T12:17:46.356Z,52.97
2016-05-24T12:18:46.375Z,52.97
2016-05-24T12:19:46.470Z,53.16
2016-05-24T12:20:46.394Z,53.16
2016-05-24T12:21:46.398Z,52.97
2016-05-24T12:22:46.416Z,53.25
2016-05-24T12:23:46.435Z,52.97
2016-05-24T12:24:46.421Z,52.87
2016-05-24T12:25:46.425Z,53.16
2016-05-24T12:26:46.443Z,52.77
2016-05-24T12:27:46.460Z,53.16
2016-05-24T12:28:46.494Z,53.25
2016-05-24T12:29:46.466Z,52.87
2016-05-24T12:30:46.500Z,53.28
2016-05-24T12:31:46.488Z,53.35
2016-05-24T12:32:46.521Z,53.25
2016-05-24T12:33:46.571Z,52.67
2016-05-24T12:34:46.527Z,52.77
2016-05-24T12:35:46.530Z,52.29
2016-05-24T12:36:46.548Z,52.39
2016-05-24T12:37:46.566Z,52.58
2016-05-24T12:38:46.568Z,52.87
2016-05-24T12:39:46.571Z,52.87
2016-05-24T12:40:46.590Z,52.77
2016-05-24T12:41:46.451Z,52.58
2016-05-24T12:42:46.611Z,52.97
2016-05-24T12:43:46.628Z,52.77
2016-05-24T12:44:49.084Z,52.58
2016-05-24T12:45:47.041Z,52.8
2016-05-24T12:46:46.637Z,52.7
2016-05-24T12:47:46.670Z,52.67
2016-05-24T12:48:46.673Z,52.67
2016-05-24T12:49:47.630Z,52.8
2016-05-24T12:50:46.679Z,52.99
2016-05-24T12:51:46.698Z,52.7
2016-05-24T12:52:46.747Z,52.8
2016-05-24T12:53:46.703Z,53.28